createdAt,value
2023-01-04T00:00:09.562Z,0.00
2023-01-04T00:01:10.405Z,0.00
2023-01-04T00:02:11.419Z,0.00
2023-01-04T00:03:11.992Z,0.00
2023-01-04T00:04:12.406Z,0.00
2023-01-04T00:05:13.294Z,0.00
2023-01-04T00:06:14.179Z,0.00
2023-01-04T00:07:15.104Z,0.00
2023-01-04T00:08:15.986Z,0.00
2023-01-04T00:09:16.896Z,0.00
2023-01-04T00:10:17.748Z,0.00
2023-01-04T00:11:18.638Z,0.00
2023-01-04T00:12:19.514Z,0.00
2023-01-04T00:13:20.407Z,0.00
2023-01-04T00:14:21.305Z,0.00
2023-01-04T00:15:22.213Z,0.00
2023-01-04T00:16:23.184Z,0.00
2023-01-04T00:17:23.567Z,0.00
2023-01-04T00:18:24.457Z,0.00
2023-01-04T00:19:25.346Z,0.00
2023-01-04T00:20:26.216Z,0.00
2023-01-04T00:21:27.104Z,0.00
2023-01-04T00:22:27.970Z,0.00
2023-01-04T00:23:28.856Z,0.00
2023-01-04T00:24:29.741Z,0.00
2023-01-04T00:25:30.620Z,0.00
2023-01-04T00:26:31.581Z,0.00
2023-01-04T00:27:32.430Z,0.00
2023-01-04T00:28:33.319Z,0.00
2023-01-04T00:29:34.222Z,0.00
2023-01-04T00:30:35.122Z,0.00
2023-01-04T00:31:36.078Z,0.00
2023-01-04T00:32:36.943Z,0.00
2023-01-04T00:33:37.851Z,0.00
2023-01-04T00:34:38.717Z,0.00
2023-01-04T00:35:46.784Z,0.00
2023-01-04T00:36:41.369Z,0.00
2023-01-04T00:37:43.648Z,0.00
2023-01-04T00:38:42.010Z,0.00
2023-01-04T00:39:42.896Z,0.00
2023-01-04T00:40:43.802Z,0.00
2023-01-04T00:42:01.264Z,0.00
2023-01-04T00:42:46.424Z,0.00
2023-01-04T00:43:46.313Z,0.00
2023-01-04T00:44:47.195Z,0.00
2023-01-04T00:45:48.147Z,0.00
2023-01-04T00:46:49.095Z,0.00
2023-01-04T00:47:49.944Z,0.00
2023-01-04T00:48:52.788Z,0.00
2023-01-04T00:49:51.611Z,0.00
2023-01-04T00:50:52.533Z,0.00
2023-01-04T00:51:53.390Z,0.00
2023-01-04T00:52:54.266Z,0.00
2023-01-04T00:53:55.180Z,0.00
2023-01-04T00:54:56.057Z,0.00
2023-01-04T00:55:56.955Z,0.00
2023-01-04T00:56:57.834Z,0.00
2023-01-04T00:57:58.719Z,0.00
2023-01-04T00:58:59.623Z,0.00
2023-01-04T01:00:00.525Z,0.00
2023-01-04T01:01:01.403Z,0.00
2023-01-04T01:02:02.362Z,0.00
2023-01-04T01:03:02.982Z,0.00
2023-01-04T01:04:03.491Z,0.00
2023-01-04T01:05:04.347Z,0.00
2023-01-04T01:06:05.234Z,0.00
2023-01-04T01:07:06.120Z,0.00
2023-01-04T01:08:06.994Z,0.00
2023-01-04T01:09:07.893Z,0.00
2023-01-04T01:10:08.781Z,0.00
2023-01-04T01:11:09.657Z,0.00
2023-01-04T01:12:10.549Z,0.00
2023-01-04T01:13:11.422Z,0.00
2023-01-04T01:14:12.322Z,0.00
2023-01-04T01:15:13.199Z,0.00
2023-01-04T01:16:14.195Z,0.00
2023-01-04T01:17:14.713Z,0.00
2023-01-04T01:18:15.157Z,0.00
2023-01-04T01:19:16.045Z,0.00
2023-01-04T01:20:16.915Z,0.00
2023-01-04T01:21:17.791Z,0.00
2023-01-04T01:22:18.672Z,0.00
2023-01-04T01:23:19.554Z,0.00
2023-01-04T01:24:20.447Z,0.00
2023-01-04T01:25:21.334Z,0.00
2023-01-04T01:26:22.235Z,0.00
2023-01-04T01:27:23.203Z,0.00
2023-01-04T01:28:24.021Z,0.00
2023-01-04T01:29:24.954Z,0.00
2023-01-04T01:30:25.834Z,0.00
2023-01-04T01:31:26.906Z,0.00
2023-01-04T01:32:27.264Z,0.00
2023-01-04T01:33:28.168Z,0.00
2023-01-04T01:34:29.082Z,0.00
2023-01-04T01:35:29.956Z,0.00
2023-01-04T01:36:30.863Z,0.00
2023-01-04T01:37:31.752Z,0.00
2023-01-04T01:38:32.683Z,0.00
2023-01-04T01:39:33.577Z,0.00
2023-01-04T01:40:34.478Z,0.00
2023-01-04T01:41:35.473Z,0.00
2023-01-04T01:42:35.855Z,0.00
2023-01-04T01:43:36.712Z,0.00
2023-01-04T01:44:37.619Z,0.00
2023-01-04T01:45:38.497Z,0.00
2023-01-04T01:46:39.469Z,0.00
2023-01-04T01:47:40.358Z,0.00
2023-01-04T01:48:41.253Z,0.00
2023-01-04T01:49:42.165Z,0.00
2023-01-04T01:50:43.041Z,0.00
2023-01-04T01:51:43.927Z,0.00
2023-01-04T01:52:44.833Z,0.00
2023-01-04T01:53:45.760Z,0.00
2023-01-04T01:54:46.621Z,0.00
2023-01-04T01:55:47.505Z,0.00
2023-01-04T01:56:48.402Z,0.00
2023-01-04T01:57:49.289Z,0.00
2023-01-04T01:58:50.171Z,0.00
2023-01-04T01:59:51.150Z,0.00
2023-01-04T02:00:52.033Z,0.00
2023-01-04T02:01:53.095Z,0.00
2023-01-04T02:02:53.883Z,0.00
2023-01-04T02:03:54.411Z,0.00
2023-01-04T02:04:55.350Z,0.00
2023-01-04T02:05:56.241Z,0.00
2023-01-04T02:06:57.116Z,0.00
2023-01-04T02:07:58.005Z,0.00
2023-01-04T02:08:58.886Z,0.00
2023-01-04T02:09:59.786Z,0.00
2023-01-04T02:11:00.673Z,0.00
2023-01-04T02:12:01.569Z,0.00
2023-01-04T02:13:02.453Z,0.00
2023-01-04T02:14:03.329Z,0.00
2023-01-04T02:15:04.238Z,0.00
2023-01-04T02:16:05.147Z,0.00
2023-01-04T02:17:06.076Z,0.00
2023-01-04T02:18:06.950Z,0.00
2023-01-04T02:19:07.822Z,0.00
2023-01-04T02:20:08.739Z,0.00
2023-01-04T02:21:09.608Z,0.00
2023-01-04T02:22:10.510Z,0.00
2023-01-04T02:23:11.390Z,0.00
2023-01-04T02:24:12.263Z,0.00
2023-01-04T02:25:13.191Z,0.00
2023-01-04T02:26:14.114Z,0.00
2023-01-04T02:27:15.002Z,0.00
2023-01-04T02:28:15.875Z,0.00
2023-01-04T02:29:16.761Z,0.00
2023-01-04T02:30:17.654Z,0.00
2023-01-04T02:31:18.557Z,0.00
2023-01-04T02:32:19.505Z,0.00
2023-01-04T02:33:20.357Z,0.00
2023-01-04T02:34:21.242Z,0.00
2023-01-04T02:35:22.145Z,0.00
2023-01-04T02:36:23.027Z,0.00
2023-01-04T02:37:23.939Z,0.00
2023-01-04T02:38:24.853Z,0.00
2023-01-04T02:39:25.752Z,0.00
2023-01-04T02:40:26.632Z,0.00
2023-01-04T02:41:27.504Z,0.00
2023-01-04T02:42:28.378Z,0.00
2023-01-04T02:43:29.261Z,0.00
2023-01-04T02:44:30.152Z,0.00
2023-01-04T02:45:31.037Z,0.00
2023-01-04T02:46:31.980Z,0.00
2023-01-04T02:47:32.853Z,0.00
2023-01-04T02:48:33.708Z,0.00
2023-01-04T02:49:34.585Z,0.00
2023-01-04T02:50:35.482Z,0.00
2023-01-04T02:51:36.352Z,0.00
2023-01-04T02:52:37.238Z,0.00
2023-01-04T02:53:38.122Z,0.00
2023-01-04T02:54:39.009Z,0.00
2023-01-04T02:55:39.900Z,0.00
2023-01-04T02:56:40.785Z,0.00
2023-01-04T02:57:41.668Z,0.00
2023-01-04T02:58:42.540Z,0.00
2023-01-04T02:59:43.423Z,0.00
2023-01-04T03:00:44.301Z,0.00
2023-01-04T03:01:45.314Z,0.00
2023-01-04T03:02:45.947Z,0.00
2023-01-04T03:03:46.522Z,0.00
2023-01-04T03:04:47.393Z,0.00
2023-01-04T03:05:48.307Z,0.00
2023-01-04T03:06:49.173Z,0.00
2023-01-04T03:07:50.089Z,0.00
2023-01-04T03:08:50.937Z,0.00
2023-01-04T03:09:51.823Z,0.00
2023-01-04T03:10:52.717Z,0.00
2023-01-04T03:11:53.611Z,0.00
2023-01-04T03:12:54.493Z,0.00
2023-01-04T03:13:55.364Z,0.00
2023-01-04T03:14:56.252Z,0.00
2023-01-04T03:15:57.211Z,0.00
2023-01-04T03:16:57.648Z,0.00
2023-01-04T03:17:58.543Z,0.00
2023-01-04T03:18:59.399Z,0.00
2023-01-04T03:20:00.285Z,0.00
2023-01-04T03:21:01.174Z,0.00
2023-01-04T03:22:02.054Z,0.00
2023-01-04T03:23:02.945Z,0.00
2023-01-04T03:24:03.832Z,0.00
2023-01-04T03:25:04.363Z,0.00
2023-01-04T03:26:05.336Z,0.00
2023-01-04T03:27:06.174Z,0.00
2023-01-04T03:28:07.037Z,0.00
2023-01-04T03:29:07.928Z,0.00
2023-01-04T03:30:08.793Z,0.00
2023-01-04T03:31:09.749Z,0.00
2023-01-04T03:32:10.608Z,0.00
2023-01-04T03:33:11.500Z,0.00
2023-01-04T03:34:12.373Z,0.00
2023-01-04T03:35:13.235Z,0.00
2023-01-04T03:36:14.126Z,0.00
2023-01-04T03:37:15.001Z,0.00
2023-01-04T03:38:15.896Z,0.00
2023-01-04T03:39:16.777Z,0.00
2023-01-04T03:40:17.663Z,0.00
2023-01-04T03:41:18.552Z,0.00
2023-01-04T03:42:19.434Z,0.00
2023-01-04T03:43:20.316Z,0.00
2023-01-04T03:44:21.200Z,0.00
2023-01-04T03:45:22.079Z,0.00
2023-01-04T03:46:23.019Z,0.00
2023-01-04T03:47:23.863Z,0.00
2023-01-04T03:48:24.781Z,0.00
2023-01-04T03:49:25.628Z,0.00
2023-01-04T03:50:26.512Z,0.00
2023-01-04T03:51:27.421Z,0.00
2023-01-04T03:52:28.295Z,0.00
2023-01-04T03:53:29.203Z,0.00
2023-01-04T03:54:30.077Z,0.00
2023-01-04T03:55:30.967Z,0.00
2023-01-04T03:56:31.877Z,0.00
2023-01-04T03:57:32.756Z,0.00
2023-01-04T03:58:33.636Z,0.00
2023-01-04T03:59:34.536Z,0.00
2023-01-04T04:00:35.439Z,0.00
2023-01-04T04:01:36.504Z,0.00
2023-01-04T04:02:36.993Z,0.00
2023-01-04T04:03:37.905Z,0.00
2023-01-04T04:04:38.759Z,0.00
2023-01-04T04:05:39.628Z,0.00
2023-01-04T04:06:40.542Z,0.00
2023-01-04T04:07:41.409Z,0.00
2023-01-04T04:08:42.290Z,0.00
2023-01-04T04:09:43.191Z,0.00
2023-01-04T04:10:44.063Z,0.00
2023-01-04T04:11:44.968Z,0.00
2023-01-04T04:12:45.833Z,0.00
2023-01-04T04:13:46.709Z,0.00
2023-01-04T04:14:47.588Z,0.00
2023-01-04T04:15:48.461Z,0.00
2023-01-04T04:16:49.435Z,0.00
2023-01-04T04:17:50.345Z,0.00
2023-01-04T04:18:51.231Z,0.00
2023-01-04T04:19:52.099Z,0.00
2023-01-04T04:20:52.978Z,0.00
2023-01-04T04:21:53.870Z,0.00
2023-01-04T04:22:54.741Z,0.00
2023-01-04T04:23:55.627Z,0.00
2023-01-04T04:24:56.518Z,0.00
2023-01-04T04:25:57.393Z,0.00
2023-01-04T04:26:58.285Z,0.00
2023-01-04T04:27:59.175Z,0.00
2023-01-04T04:29:00.060Z,0.00
2023-01-04T04:30:00.939Z,0.00
2023-01-04T04:31:01.817Z,0.00
2023-01-04T04:32:02.875Z,0.00
2023-01-04T04:33:03.240Z,0.00
2023-01-04T04:34:04.169Z,0.00
2023-01-04T04:35:04.997Z,0.00
2023-01-04T04:36:05.918Z,0.00
2023-01-04T04:37:06.777Z,0.00
2023-01-04T04:38:07.651Z,0.00
2023-01-04T04:39:08.531Z,0.00
2023-01-04T04:40:09.416Z,0.00
2023-01-04T04:41:10.297Z,0.00
2023-01-04T04:42:11.194Z,0.00
2023-01-04T04:43:12.088Z,0.00
2023-01-04T04:44:12.974Z,0.00
2023-01-04T04:45:13.865Z,0.00
2023-01-04T04:46:14.850Z,0.00
2023-01-04T04:47:15.731Z,0.00
2023-01-04T04:48:16.605Z,0.00
2023-01-04T04:49:17.495Z,0.00
2023-01-04T04:50:18.395Z,0.00
2023-01-04T04:51:19.242Z,0.00
2023-01-04T04:52:20.152Z,0.00
2023-01-04T04:53:21.025Z,0.00
2023-01-04T04:54:21.898Z,0.00
2023-01-04T04:55:22.788Z,0.00
2023-01-04T04:56:23.681Z,0.00
2023-01-04T04:57:24.554Z,0.00
2023-01-04T04:58:25.450Z,0.00
2023-01-04T04:59:26.319Z,0.00
2023-01-04T05:00:27.202Z,0.00
2023-01-04T05:01:28.271Z,0.00
2023-01-04T05:02:28.918Z,0.00
2023-01-04T05:03:29.436Z,0.00
2023-01-04T05:04:30.350Z,0.00
2023-01-04T05:05:31.199Z,0.00
2023-01-04T05:06:32.081Z,0.00
2023-01-04T05:07:32.956Z,0.00
2023-01-04T05:08:33.850Z,0.00
2023-01-04T05:09:34.725Z,0.00
2023-01-04T05:10:35.612Z,0.00
2023-01-04T05:11:36.487Z,0.00
2023-01-04T05:12:37.386Z,0.00
2023-01-04T05:13:38.292Z,0.00
2023-01-04T05:14:39.152Z,0.00
2023-01-04T05:15:40.032Z,0.00
2023-01-04T05:16:40.977Z,0.00
2023-01-04T05:17:41.901Z,0.00
2023-01-04T05:18:42.788Z,0.00
2023-01-04T05:19:43.687Z,0.00
2023-01-04T05:20:44.558Z,0.00
2023-01-04T05:21:45.447Z,0.00
2023-01-04T05:22:46.335Z,0.00
2023-01-04T05:23:47.217Z,0.00
2023-01-04T05:24:48.096Z,0.00
2023-01-04T05:25:48.984Z,0.00
2023-01-04T05:26:49.870Z,0.00
2023-01-04T05:27:50.757Z,0.00
2023-01-04T05:28:53.882Z,0.00
2023-01-04T05:29:52.192Z,0.00
2023-01-04T05:30:53.053Z,0.00
2023-01-04T05:31:53.963Z,0.00
2023-01-04T05:32:54.858Z,0.00
2023-01-04T05:33:55.745Z,0.00
2023-01-04T05:34:56.643Z,0.00
2023-01-04T05:35:57.502Z,0.00
2023-01-04T05:36:58.388Z,0.00
2023-01-04T05:37:59.281Z,0.00
2023-01-04T05:39:00.167Z,0.00
2023-01-04T05:40:01.054Z,0.00
2023-01-04T05:41:01.932Z,0.00
2023-01-04T05:42:02.818Z,0.00
2023-01-04T05:43:03.721Z,0.00
2023-01-04T05:44:04.605Z,0.00
2023-01-04T05:45:05.470Z,0.00
2023-01-04T05:46:06.442Z,0.00
2023-01-04T05:47:14.520Z,0.00
2023-01-04T05:48:09.103Z,0.00
2023-01-04T05:49:08.992Z,0.00
2023-01-04T05:50:09.876Z,0.00
2023-01-04T05:51:10.734Z,0.00
2023-01-04T05:52:11.650Z,0.00
2023-01-04T05:53:12.516Z,0.00
2023-01-04T05:54:17.900Z,0.00
2023-01-04T05:55:15.176Z,0.00
2023-01-04T05:56:15.049Z,0.00
2023-01-04T05:57:15.921Z,0.00
2023-01-04T05:58:16.826Z,0.00
2023-01-04T05:59:17.690Z,0.00
2023-01-04T06:00:18.578Z,0.00
2023-01-04T06:01:19.499Z,0.00
2023-01-04T06:02:20.511Z,0.00
2023-01-04T06:03:21.081Z,0.00
2023-01-04T06:04:21.467Z,0.00
2023-01-04T06:05:22.369Z,0.00
2023-01-04T06:06:23.234Z,0.00
2023-01-04T06:07:24.117Z,0.00
2023-01-04T06:08:25.007Z,0.00
2023-01-04T06:09:25.893Z,0.00
2023-01-04T06:10:26.787Z,0.00
2023-01-04T06:11:28.066Z,0.00
2023-01-04T06:12:28.391Z,0.00
2023-01-04T06:13:29.281Z,0.00
2023-01-04T06:14:30.166Z,0.00
2023-01-04T06:15:31.052Z,0.00
2023-01-04T06:16:31.971Z,0.00
2023-01-04T06:17:32.845Z,0.00
2023-01-04T06:18:33.718Z,0.00
2023-01-04T06:19:34.609Z,0.00
2023-01-04T06:20:35.548Z,0.00
2023-01-04T06:21:36.372Z,0.00
2023-01-04T06:22:37.239Z,0.00
2023-01-04T06:23:38.138Z,0.00
2023-01-04T06:24:39.012Z,0.00
2023-01-04T06:25:39.931Z,0.00
2023-01-04T06:26:40.804Z,0.00
2023-01-04T06:27:41.666Z,0.00
2023-01-04T06:28:42.569Z,0.00
2023-01-04T06:29:43.437Z,0.00
2023-01-04T06:30:44.370Z,0.00
2023-01-04T06:31:45.224Z,0.00
2023-01-04T06:32:46.119Z,0.00
2023-01-04T06:33:46.998Z,0.00
2023-01-04T06:34:47.885Z,0.00
2023-01-04T06:35:48.830Z,0.00
2023-01-04T06:36:49.640Z,0.00
2023-01-04T06:37:50.484Z,1.00
2023-01-04T06:38:51.373Z,0.00
2023-01-04T06:39:52.238Z,0.00
2023-01-04T06:40:53.111Z,0.00
2023-01-04T06:41:53.995Z,0.00
2023-01-04T06:42:54.840Z,1.00
2023-01-04T06:43:55.669Z,2.00
2023-01-04T06:44:56.522Z,1.00
2023-01-04T06:45:57.367Z,1.00
2023-01-04T06:46:58.194Z,3.00
2023-01-04T06:47:59.016Z,4.00
2023-01-04T06:48:59.861Z,1.00
2023-01-04T06:50:00.695Z,1.00
2023-01-04T06:51:01.543Z,4.00
2023-01-04T06:52:02.337Z,1.00
2023-01-04T06:53:03.175Z,2.00
2023-01-04T06:54:04.018Z,7.00
2023-01-04T06:55:04.844Z,2.00
2023-01-04T06:56:05.681Z,2.00
2023-01-04T06:57:06.494Z,9.00
2023-01-04T06:58:07.318Z,2.00
2023-01-04T06:59:08.160Z,4.00
2023-01-04T07:00:08.989Z,11.00
2023-01-04T07:01:09.997Z,16.00
2023-01-04T07:02:10.418Z,10.00
2023-01-04T07:03:14.410Z,2.00
2023-01-04T07:04:11.955Z,2.00
2023-01-04T07:05:12.763Z,9.00
2023-01-04T07:06:13.599Z,11.00
2023-01-04T07:07:14.403Z,13.00
2023-01-04T07:08:15.224Z,21.00
2023-01-04T07:09:16.061Z,10.00
2023-01-04T07:10:16.893Z,15.00
2023-01-04T07:11:17.718Z,13.00
2023-01-04T07:12:18.552Z,11.00
2023-01-04T07:13:19.373Z,27.00
2023-01-04T07:14:20.213Z,19.00
2023-01-04T07:15:37.385Z,25.00
2023-01-04T07:16:23.061Z,18.00
2023-01-04T07:17:26.517Z,20.00
2023-01-04T07:18:24.169Z,26.00
2023-01-04T07:19:23.975Z,20.00
2023-01-04T07:20:24.787Z,34.00
2023-01-04T07:21:25.628Z,37.00
2023-01-04T07:22:26.433Z,27.00
2023-01-04T07:23:27.296Z,22.00
2023-01-04T07:24:30.598Z,29.00
2023-01-04T07:25:28.587Z,41.00
2023-01-04T07:26:29.456Z,37.00
2023-01-04T07:27:30.247Z,36.00
2023-01-04T07:28:31.073Z,36.00
2023-01-04T07:29:31.910Z,47.00
2023-01-04T07:30:32.786Z,44.00
2023-01-04T07:31:33.603Z,34.00
2023-01-04T07:32:34.392Z,41.00
2023-01-04T07:33:35.248Z,55.00
2023-01-04T07:34:36.060Z,56.00
2023-01-04T07:35:36.897Z,58.00
2023-01-04T07:36:37.738Z,65.00
2023-01-04T07:37:38.548Z,66.00
2023-01-04T07:38:39.393Z,61.00
2023-01-04T07:39:40.225Z,51.00
2023-01-04T07:40:55.989Z,64.00
2023-01-04T07:41:42.760Z,72.00
2023-01-04T07:42:42.588Z,66.00
2023-01-04T07:43:43.420Z,53.00
2023-01-04T07:44:44.288Z,53.00
2023-01-04T07:45:45.091Z,36.00
2023-01-04T07:46:46.019Z,58.00
2023-01-04T07:47:46.892Z,79.00
2023-01-04T07:48:47.722Z,78.00
2023-01-04T07:49:48.554Z,63.00
2023-01-04T07:50:49.376Z,53.00
2023-01-04T07:51:50.217Z,65.00
2023-01-04T07:52:51.035Z,64.00
2023-01-04T07:53:51.862Z,52.00
2023-01-04T07:54:52.703Z,48.00
2023-01-04T07:55:53.521Z,47.00
2023-01-04T07:56:54.349Z,46.00
2023-01-04T07:57:55.168Z,47.00
2023-01-04T07:58:56.006Z,72.00
2023-01-04T07:59:56.823Z,78.00
2023-01-04T08:00:57.653Z,72.00
2023-01-04T08:01:58.613Z,61.00
2023-01-04T08:02:59.671Z,63.00
2023-01-04T08:04:00.144Z,61.00
2023-01-04T08:05:01.128Z,61.00
2023-01-04T08:06:01.930Z,72.00
2023-01-04T08:07:02.806Z,94.00
2023-01-04T08:08:03.638Z,95.00
2023-01-04T08:09:04.456Z,85.00
2023-01-04T08:10:05.378Z,67.00
2023-01-04T08:11:06.215Z,69.00
2023-01-04T08:12:07.024Z,75.00
2023-01-04T08:13:07.859Z,76.00
2023-01-04T08:14:08.709Z,69.00
2023-01-04T08:15:09.528Z,67.00
2023-01-04T08:16:10.422Z,71.00
2023-01-04T08:17:11.240Z,77.00
2023-01-04T08:18:12.059Z,87.00
2023-01-04T08:19:12.975Z,79.00
2023-01-04T08:20:13.846Z,81.00
2023-01-04T08:21:14.658Z,81.00
2023-01-04T08:22:15.510Z,92.00
2023-01-04T08:23:16.333Z,81.00
2023-01-04T08:24:17.154Z,83.00
2023-01-04T08:25:18.069Z,92.00
2023-01-04T08:26:18.825Z,108.00
2023-01-04T08:27:19.664Z,115.00
2023-01-04T08:28:20.494Z,106.00
2023-01-04T08:29:21.331Z,100.00
2023-01-04T08:30:22.193Z,113.00
2023-01-04T08:31:23.059Z,127.00
2023-01-04T08:32:23.829Z,127.00
2023-01-04T08:33:24.663Z,119.00
2023-01-04T08:34:25.593Z,124.00
2023-01-04T08:35:26.415Z,131.00
2023-01-04T08:36:27.996Z,129.00
2023-01-04T08:37:27.921Z,131.00
2023-01-04T08:38:58.639Z,132.00
2023-01-04T08:39:30.515Z,104.00
2023-01-04T08:41:00.200Z,129.00
2023-01-04T08:41:57.306Z,132.00
2023-01-04T08:42:32.817Z,58.00
2023-01-04T08:43:32.697Z,250.00
2023-01-04T08:44:33.485Z,259.00
2023-01-04T08:45:34.311Z,359.00
2023-01-04T08:46:35.213Z,253.00
2023-01-04T08:47:36.045Z,126.00
2023-01-04T08:48:36.884Z,266.00
2023-01-04T08:49:37.705Z,98.00
2023-01-04T08:50:38.539Z,535.00
2023-01-04T08:51:39.364Z,340.00
2023-01-04T08:52:40.227Z,157.00
2023-01-04T08:53:41.090Z,181.00
2023-01-04T08:54:41.939Z,219.00
2023-01-04T08:55:42.769Z,139.00
2023-01-04T08:56:43.813Z,295.00
2023-01-04T08:57:44.119Z,207.00
2023-01-04T08:58:44.950Z,166.00
2023-01-04T08:59:45.779Z,166.00
2023-01-04T09:00:46.612Z,166.00
2023-01-04T09:01:47.564Z,163.00
2023-01-04T09:02:48.171Z,167.00
2023-01-04T09:03:48.589Z,165.00
2023-01-04T09:04:49.564Z,180.00
2023-01-04T09:05:49.970Z,174.00
2023-01-04T09:06:50.883Z,179.00
2023-01-04T09:07:51.761Z,175.00
2023-01-04T09:08:52.547Z,179.00
2023-01-04T09:09:53.360Z,186.00
2023-01-04T09:10:54.194Z,173.00
2023-01-04T09:11:55.026Z,168.00
2023-01-04T09:12:56.016Z,169.00
2023-01-04T09:14:02.620Z,168.00
2023-01-04T09:14:58.549Z,175.00
2023-01-04T09:15:58.464Z,173.00
2023-01-04T09:16:59.311Z,200.00
2023-01-04T09:18:31.488Z,216.00
2023-01-04T09:19:01.860Z,231.00
2023-01-04T09:20:01.699Z,239.00
2023-01-04T09:21:02.639Z,248.00
2023-01-04T09:22:03.899Z,264.00
2023-01-04T09:23:04.342Z,278.00
2023-01-04T09:24:05.259Z,276.00
2023-01-04T09:25:06.386Z,375.00
2023-01-04T09:26:09.538Z,370.00
2023-01-04T09:27:07.627Z,362.00
2023-01-04T09:28:08.444Z,347.00
2023-01-04T09:29:09.275Z,337.00
2023-01-04T09:30:10.105Z,418.00
2023-01-04T09:31:11.271Z,384.00
2023-01-04T09:32:16.509Z,328.00
2023-01-04T09:33:13.366Z,430.00
2023-01-04T09:34:16.089Z,428.00
2023-01-04T09:35:15.137Z,436.00
2023-01-04T09:36:15.645Z,417.00
2023-01-04T09:37:15.465Z,400.00
2023-01-04T09:38:16.675Z,318.00
2023-01-04T09:39:22.414Z,402.00
2023-01-04T09:40:18.705Z,324.00
2023-01-04T09:41:18.714Z,359.00
2023-01-04T09:42:19.502Z,225.00
2023-01-04T09:43:22.141Z,259.00
2023-01-04T09:44:21.112Z,219.00
2023-01-04T09:45:24.503Z,235.00
2023-01-04T09:46:22.338Z,241.00
2023-01-04T09:47:23.144Z,236.00
2023-01-04T09:48:25.966Z,230.00
2023-01-04T09:49:24.915Z,261.00
2023-01-04T09:50:25.777Z,289.00
2023-01-04T09:51:26.609Z,263.00
2023-01-04T09:52:27.421Z,272.00
2023-01-04T09:53:28.302Z,299.00
2023-01-04T09:55:38.862Z,345.00
2023-01-04T09:56:31.618Z,366.00
2023-01-04T09:57:31.427Z,383.00
2023-01-04T09:58:32.708Z,364.00
2023-01-04T09:59:33.064Z,429.00
2023-01-04T10:00:37.409Z,298.00
2023-01-04T10:01:35.860Z,300.00
2023-01-04T10:02:35.605Z,299.00
2023-01-04T10:03:36.145Z,301.00
2023-01-04T10:04:36.956Z,303.00
2023-01-04T10:05:37.788Z,290.00
2023-01-04T10:06:38.614Z,286.00
2023-01-04T10:07:39.445Z,292.00
2023-01-04T10:08:40.284Z,294.00
2023-01-04T10:09:41.083Z,286.00
2023-01-04T10:10:41.903Z,287.00
2023-01-04T10:11:42.742Z,277.00
2023-01-04T10:12:43.571Z,288.00
2023-01-04T10:13:44.403Z,259.00
2023-01-04T10:14:45.225Z,235.00
2023-01-04T10:15:46.063Z,217.00
2023-01-04T10:17:13.638Z,192.00
2023-01-04T10:21:12.881Z,175.00
2023-01-04T10:21:51.607Z,176.00
2023-01-04T10:22:51.429Z,175.00
2023-01-04T10:23:52.288Z,195.00
2023-01-04T10:24:53.089Z,201.00
2023-01-04T10:25:53.916Z,198.00
2023-01-04T10:26:54.745Z,198.00
2023-01-04T10:27:55.576Z,212.00
2023-01-04T10:28:56.394Z,234.00
2023-01-04T10:29:57.221Z,236.00
2023-01-04T10:30:58.042Z,208.00
2023-01-04T10:31:58.906Z,197.00
2023-01-04T10:32:59.699Z,184.00
2023-01-04T10:34:00.528Z,184.00
2023-01-04T10:35:01.352Z,165.00
2023-01-04T10:36:02.188Z,151.00
2023-01-04T10:37:03.009Z,159.00
2023-01-04T10:38:03.842Z,166.00
2023-01-04T10:39:04.724Z,162.00
2023-01-04T10:40:05.544Z,192.00
2023-01-04T10:41:06.357Z,170.00
2023-01-04T10:42:07.196Z,196.00
2023-01-04T10:43:08.015Z,188.00
2023-01-04T10:44:10.681Z,192.00
2023-01-04T10:45:09.828Z,210.00
2023-01-04T10:46:10.140Z,213.00
2023-01-04T10:47:11.044Z,191.00
2023-01-04T10:48:11.839Z,222.00
2023-01-04T10:49:12.674Z,260.00
2023-01-04T10:50:13.487Z,247.00
2023-01-04T10:51:14.307Z,251.00
2023-01-04T10:52:15.163Z,254.00
2023-01-04T10:53:15.981Z,287.00
2023-01-04T10:54:16.815Z,254.00
2023-01-04T10:55:17.626Z,291.00
2023-01-04T10:56:26.503Z,315.00
2023-01-04T10:57:20.163Z,302.00
2023-01-04T10:58:19.983Z,283.00
2023-01-04T10:59:20.820Z,244.00
2023-01-04T11:00:21.665Z,227.00
2023-01-04T11:01:22.597Z,246.00
2023-01-04T11:02:23.554Z,268.00
2023-01-04T11:03:24.067Z,291.00
2023-01-04T11:04:24.841Z,288.00
2023-01-04T11:05:25.662Z,277.00
2023-01-04T11:06:26.494Z,270.00
2023-01-04T11:07:27.316Z,256.00
2023-01-04T11:08:28.144Z,233.00
2023-01-04T11:09:28.995Z,236.00
2023-01-04T11:10:29.838Z,224.00
2023-01-04T11:11:30.624Z,233.00
2023-01-04T11:12:31.465Z,227.00
2023-01-04T11:13:32.282Z,195.00
2023-01-04T11:14:37.217Z,170.00
2023-01-04T11:15:33.951Z,175.00
2023-01-04T11:16:34.821Z,169.00
2023-01-04T11:17:35.637Z,171.00
2023-01-04T11:18:36.489Z,171.00
2023-01-04T11:19:37.285Z,169.00
2023-01-04T11:20:38.730Z,166.00
2023-01-04T11:21:39.052Z,164.00
2023-01-04T11:22:39.933Z,165.00
2023-01-04T11:23:40.753Z,164.00
2023-01-04T11:24:54.444Z,158.00
2023-01-04T11:25:43.298Z,159.00
2023-01-04T11:26:43.125Z,164.00
2023-01-04T11:27:43.963Z,164.00
2023-01-04T11:28:44.797Z,157.00
2023-01-04T11:29:45.622Z,154.00
2023-01-04T11:30:46.454Z,147.00
2023-01-04T11:31:47.340Z,131.00
2023-01-04T11:32:48.199Z,121.00
2023-01-04T11:33:48.991Z,119.00
2023-01-04T11:34:49.828Z,120.00
2023-01-04T11:35:50.640Z,109.00
2023-01-04T11:36:51.469Z,102.00
2023-01-04T11:37:52.298Z,102.00
2023-01-04T11:38:53.128Z,107.00
2023-01-04T11:39:53.968Z,102.00
2023-01-04T11:40:54.781Z,97.00
2023-01-04T11:42:02.364Z,93.00
2023-01-04T11:42:57.322Z,94.00
2023-01-04T11:43:57.140Z,95.00
2023-01-04T11:44:57.970Z,89.00
2023-01-04T11:45:58.861Z,95.00
2023-01-04T11:46:59.705Z,96.00
2023-01-04T11:48:00.537Z,98.00
2023-01-04T11:49:01.354Z,104.00
2023-01-04T11:50:02.174Z,104.00
2023-01-04T11:51:03.009Z,109.00
2023-01-04T11:52:03.824Z,104.00
2023-01-04T11:53:04.664Z,98.00
2023-01-04T11:54:05.577Z,99.00
2023-01-04T11:55:06.372Z,93.00
2023-01-04T11:56:07.173Z,89.00
2023-01-04T11:57:11.747Z,82.00
2023-01-04T11:58:09.033Z,80.00
2023-01-04T11:59:09.840Z,85.00
2023-01-04T12:00:10.657Z,88.00
2023-01-04T12:01:11.546Z,81.00
2023-01-04T12:02:28.573Z,80.00
2023-01-04T12:03:14.085Z,83.00
2023-01-04T12:04:13.889Z,88.00
2023-01-04T12:05:14.715Z,90.00
2023-01-04T12:06:15.537Z,92.00
2023-01-04T12:07:16.363Z,97.00
2023-01-04T12:08:17.199Z,100.00
2023-01-04T12:09:18.168Z,98.00
2023-01-04T12:10:19.016Z,100.00
2023-01-04T12:11:19.819Z,97.00
2023-01-04T12:12:20.637Z,98.00
2023-01-04T12:13:21.483Z,99.00
2023-01-04T12:14:22.314Z,108.00
2023-01-04T12:15:23.141Z,102.00
2023-01-04T12:16:23.963Z,108.00
2023-01-04T12:17:24.813Z,112.00
2023-01-04T12:18:25.635Z,119.00
2023-01-04T12:19:26.470Z,108.00
2023-01-04T12:20:27.293Z,100.00
2023-01-04T12:21:28.110Z,100.00
2023-01-04T12:22:28.931Z,97.00
2023-01-04T12:23:29.775Z,90.00
2023-01-04T12:24:30.594Z,82.00
2023-01-04T12:25:31.532Z,78.00
2023-01-04T12:26:32.341Z,79.00
2023-01-04T12:27:33.167Z,78.00
2023-01-04T12:28:33.996Z,76.00
2023-01-04T12:29:34.830Z,76.00
2023-01-04T12:30:35.641Z,72.00
2023-01-04T12:31:36.472Z,74.00
2023-01-04T12:32:37.290Z,71.00
2023-01-04T12:33:38.138Z,65.00
2023-01-04T12:34:38.956Z,65.00
2023-01-04T12:35:39.779Z,58.00
2023-01-04T12:36:40.598Z,60.00
2023-01-04T12:37:41.424Z,67.00
2023-01-04T12:38:42.267Z,68.00
2023-01-04T12:39:43.095Z,73.00
2023-01-04T12:40:43.934Z,87.00
2023-01-04T12:41:44.742Z,82.00
2023-01-04T12:42:45.572Z,79.00
2023-01-04T12:43:47.191Z,76.00
2023-01-04T12:44:47.066Z,81.00
2023-01-04T12:45:47.962Z,84.00
2023-01-04T12:46:48.774Z,86.00
2023-01-04T12:47:49.599Z,92.00
2023-01-04T12:48:50.438Z,102.00
2023-01-04T12:49:51.268Z,103.00
2023-01-04T12:51:04.224Z,103.00
2023-01-04T12:52:20.742Z,108.00
2023-01-04T12:53:19.563Z,111.00
2023-01-04T12:53:55.257Z,116.00
2023-01-04T12:54:55.082Z,124.00
2023-01-04T12:55:55.921Z,136.00
2023-01-04T12:56:56.724Z,138.00
2023-01-04T12:57:57.554Z,133.00
2023-01-04T12:59:24.755Z,136.00
2023-01-04T13:00:00.205Z,138.00
2023-01-04T13:01:00.136Z,134.00
2023-01-04T13:02:01.142Z,134.00
2023-01-04T13:03:01.718Z,129.00
2023-01-04T13:04:05.624Z,122.00
2023-01-04T13:05:53.571Z,119.00
2023-01-04T13:06:04.705Z,114.00
2023-01-04T13:07:04.525Z,102.00
2023-01-04T13:08:05.354Z,101.00
2023-01-04T13:09:06.183Z,102.00
2023-01-04T13:10:07.043Z,104.00
2023-01-04T13:11:07.878Z,107.00
2023-01-04T13:12:08.670Z,107.00
2023-01-04T13:13:09.499Z,107.00